createdAt,value
2023-05-19T00:02:34.399Z,101104.94
2023-05-19T00:07:40.593Z,101112.53
2023-05-19T00:12:46.404Z,101117.28
2023-05-19T00:17:52.969Z,101108.13
2023-05-19T00:22:58.547Z,101120.09
2023-05-19T00:28:04.249Z,101122.91
2023-05-19T00:33:09.973Z,101128.81
2023-05-19T00:38:15.634Z,101126.16
2023-05-19T00:43:21.200Z,101122.84
2023-05-19T00:48:27.354Z,101126.69
2023-05-19T00:53:34.849Z,101124.22
2023-05-19T00:58:40.622Z,101123.84
2023-05-19T01:03:47.672Z,101136.69
2023-05-19T01:08:53.950Z,101092.88
2023-05-19T01:13:59.767Z,101120.31
2023-05-19T01:19:57.090Z,101131.91
2023-05-19T01:25:22.354Z,101121.94
2023-05-19T01:30:40.800Z,101129.88
2023-05-19T01:35:48.104Z,101134.81
2023-05-19T01:40:55.190Z,101130.16
2023-05-19T01:46:02.235Z,101136.09
2023-05-19T01:51:08.042Z,101122.69
2023-05-19T01:56:25.984Z,101140.09
2023-05-19T02:01:40.241Z,101131.59
2023-05-19T02:07:04.794Z,101139.19
2023-05-19T02:12:28.097Z,101131.84
2023-05-19T02:17:37.453Z,101128.75
2023-05-19T02:22:43.784Z,101122.75
2023-05-19T02:27:49.821Z,101138.19
2023-05-19T02:32:56.047Z,101143.78
2023-05-19T02:38:01.786Z,101141.84
2023-05-19T02:43:07.416Z,101144.47
2023-05-19T02:48:13.327Z,101131.19
2023-05-19T02:53:18.977Z,101144.41
2023-05-19T02:58:24.714Z,101138.22
2023-05-19T03:03:30.258Z,101145.13
2023-05-19T03:08:37.232Z,101139.78
2023-05-19T03:13:43.795Z,101133.34
2023-05-19T03:18:49.351Z,101138.56
2023-05-19T03:23:55.439Z,101138.84
2023-05-19T03:29:00.651Z,101153.53
2023-05-19T03:34:06.154Z,101154.78
2023-05-19T03:39:11.799Z,101151.75
2023-05-19T03:44:17.827Z,101151.09
2023-05-19T03:49:23.585Z,101155.25
2023-05-19T03:54:43.325Z,101149.81
2023-05-19T03:59:48.377Z,101153.03
2023-05-19T04:04:54.447Z,101153.72
2023-05-19T04:10:00.257Z,101162.66
2023-05-19T04:15:12.060Z,101167.81
2023-05-19T04:20:19.130Z,101163.75
2023-05-19T04:25:26.276Z,101152.72
2023-05-19T04:30:32.308Z,101160.00
2023-05-19T04:35:38.803Z,101155.72
2023-05-19T04:40:46.465Z,101148.91
2023-05-19T04:45:52.245Z,101157.19
2023-05-19T04:50:58.430Z,101156.34
2023-05-19T04:56:04.151Z,101153.13
2023-05-19T05:01:10.225Z,101156.53
2023-05-19T05:06:14.502Z,101155.50
2023-05-19T05:11:19.579Z,101150.88
2023-05-19T05:16:25.687Z,101146.69
2023-05-19T05:21:30.556Z,101153.75
2023-05-19T05:26:36.518Z,101150.19
2023-05-19T05:31:41.910Z,101135.00
2023-05-19T05:36:46.210Z,101156.03
2023-05-19T05:41:50.779Z,101149.03
2023-05-19T05:46:55.421Z,101151.38
2023-05-19T05:52:05.778Z,101151.91
2023-05-19T05:57:16.414Z,101144.59
2023-05-19T06:02:22.646Z,101156.41
2023-05-19T06:07:27.154Z,101155.66
2023-05-19T06:12:31.736Z,101156.72
2023-05-19T06:17:37.227Z,101160.25
2023-05-19T06:22:41.795Z,101156.78
2023-05-19T06:27:47.000Z,101170.56
2023-05-19T06:32:52.767Z,101157.81
2023-05-19T06:37:57.604Z,101163.09
2023-05-19T06:43:02.123Z,101171.81
2023-05-19T06:48:18.587Z,101165.38
2023-05-19T06:53:22.996Z,101162.03
2023-05-19T06:58:29.333Z,101165.75
2023-05-19T07:03:36.084Z,101167.72
2023-05-19T07:08:41.153Z,101153.53
2023-05-19T07:13:46.294Z,101158.31
2023-05-19T07:18:56.261Z,101161.38
2023-05-19T07:24:01.359Z,101160.63
2023-05-19T07:29:06.393Z,101163.25
2023-05-19T07:34:10.622Z,101155.69
2023-05-19T07:39:15.119Z,101171.81
2023-05-19T07:44:19.730Z,101167.16
2023-05-19T07:49:24.136Z,101159.81
2023-05-19T07:54:28.349Z,101161.38
2023-05-19T07:59:32.848Z,101164.19
2023-05-19T08:04:38.622Z,101161.16
2023-05-19T08:09:42.810Z,101168.59
2023-05-19T08:14:47.144Z,101163.84
2023-05-19T08:19:51.325Z,101160.25
2023-05-19T08:24:55.469Z,101169.47
2023-05-19T08:30:00.187Z,101144.34
2023-05-19T08:35:04.936Z,101166.16
2023-05-19T08:40:16.787Z,101171.69
2023-05-19T08:45:21.227Z,101165.44
2023-05-19T08:50:31.085Z,101161.59
2023-05-19T08:55:43.008Z,101165.09
2023-05-19T09:00:49.393Z,101167.91
2023-05-19T09:05:53.672Z,101168.28
2023-05-19T09:10:57.923Z,101168.66
2023-05-19T09:16:03.795Z,101165.09
2023-05-19T09:21:08.684Z,101165.53
2023-05-19T09:26:12.882Z,101160.22
2023-05-19T09:31:17.086Z,101159.72
2023-05-19T09:36:21.278Z,101159.00
2023-05-19T09:41:26.990Z,101155.13
2023-05-19T09:46:31.358Z,101159.56
2023-05-19T09:51:40.133Z,101165.47
2023-05-19T09:56:44.892Z,101158.94
2023-05-19T10:01:49.933Z,101155.13
2023-05-19T10:06:56.009Z,101159.72
2023-05-19T10:12:00.345Z,101164.50
2023-05-19T10:17:05.286Z,101163.75
2023-05-19T10:22:09.556Z,101163.44
2023-05-19T10:27:15.678Z,101164.41
2023-05-19T10:32:22.877Z,101163.50
2023-05-19T10:37:42.425Z,101157.44
2023-05-19T10:43:14.722Z,101171.34
2023-05-19T10:48:21.350Z,101161.13
2023-05-19T10:53:32.649Z,101161.81
2023-05-19T10:58:46.676Z,101163.00
2023-05-19T11:03:57.936Z,101158.72
2023-05-19T11:09:16.224Z,101160.50
2023-05-19T11:14:23.628Z,101156.81
2023-05-19T11:19:42.520Z,101156.03
2023-05-19T11:24:50.629Z,101157.97
2023-05-19T11:30:02.757Z,101161.75
2023-05-19T11:35:10.587Z,101166.91
2023-05-19T11:40:17.765Z,101168.00
2023-05-19T11:45:32.921Z,101156.75
2023-05-19T11:50:38.885Z,101168.09
2023-05-19T11:55:46.271Z,101160.31
2023-05-19T12:00:52.171Z,101171.41
2023-05-19T12:05:57.633Z,101166.38
2023-05-19T12:11:02.112Z,101174.41
2023-05-19T12:16:07.063Z,101168.78
2023-05-19T12:21:11.777Z,101173.59
2023-05-19T12:26:16.160Z,101174.72
2023-05-19T12:31:24.240Z,101180.16
2023-05-19T12:36:29.812Z,101176.47
2023-05-19T12:41:35.252Z,101178.84
2023-05-19T12:46:41.474Z,101177.25
2023-05-19T12:51:52.425Z,101176.47
2023-05-19T12:56:58.755Z,101171.88
2023-05-19T13:02:03.110Z,101172.50
2023-05-19T13:07:07.836Z,101176.78
2023-05-19T13:12:11.996Z,101180.56
2023-05-19T13:17:16.689Z,101182.50
2023-05-19T13:22:22.377Z,101186.25
2023-05-19T13:27:27.808Z,101183.06
2023-05-19T13:32:32.706Z,101193.56
2023-05-19T13:37:38.191Z,101194.41
2023-05-19T13:42:44.896Z,101189.59
2023-05-19T13:47:50.304Z,101184.22
2023-05-19T13:52:55.661Z,101192.31
2023-05-19T13:58:01.467Z,101195.81
2023-05-19T14:03:07.523Z,101210.38
2023-05-19T14:08:12.891Z,101189.97
2023-05-19T14:13:32.066Z,101197.78
2023-05-19T14:18:42.326Z,101208.53
2023-05-19T14:23:47.877Z,101196.47
2023-05-19T14:28:53.430Z,101201.31
2023-05-19T14:33:58.771Z,101204.03
2023-05-19T14:39:04.261Z,101206.72
2023-05-19T14:44:09.871Z,101209.16
2023-05-19T14:49:15.833Z,101213.97
2023-05-19T14:54:21.557Z,101212.66
2023-05-19T14:59:27.289Z,101213.75
2023-05-19T15:04:32.808Z,101209.72
2023-05-19T15:09:38.536Z,101207.06
2023-05-19T15:14:44.178Z,101203.31
2023-05-19T15:19:50.053Z,101204.41
2023-05-19T15:24:55.596Z,101212.47
2023-05-19T15:30:01.156Z,101213.19
2023-05-19T15:35:12.650Z,101215.38
2023-05-19T15:40:18.335Z,101211.28
2023-05-19T15:45:25.158Z,101223.34
2023-05-19T15:50:30.596Z,101210.69
2023-05-19T15:55:36.141Z,101216.00
2023-05-19T16:00:41.512Z,101221.78
2023-05-19T16:05:47.494Z,101215.78
2023-05-19T16:10:54.151Z,101220.31
2023-05-19T16:15:59.344Z,101221.88
2023-05-19T16:21:04.808Z,101226.63
2023-05-19T16:26:10.359Z,101227.53
2023-05-19T16:31:15.848Z,101229.06
2023-05-19T16:36:23.318Z,101236.34
2023-05-19T16:41:28.905Z,101241.28
2023-05-19T16:46:34.669Z,101244.34
2023-05-19T16:51:40.364Z,101250.09
2023-05-19T16:56:46.827Z,101246.97
2023-05-19T17:01:53.051Z,101256.06
2023-05-19T17:06:58.405Z,101260.03
2023-05-19T17:12:06.384Z,101268.13
2023-05-19T17:17:11.891Z,101265.25
2023-05-19T17:22:17.354Z,101279.94
2023-05-19T17:27:25.064Z,101289.78
2023-05-19T17:32:37.959Z,101286.72
2023-05-19T17:37:44.085Z,101292.56
2023-05-19T17:42:50.214Z,101284.69
2023-05-19T17:47:58.147Z,101285.53
2023-05-19T17:53:04.081Z,101289.34
2023-05-19T17:58:10.053Z,101290.28
2023-05-19T18:03:16.213Z,101279.91
2023-05-19T18:08:29.141Z,101285.28
2023-05-19T18:13:34.822Z,101293.88
2023-05-19T18:18:46.521Z,101290.19
2023-05-19T18:23:52.130Z,101289.00
2023-05-19T18:29:04.575Z,101295.72
2023-05-19T18:34:10.185Z,101297.56
2023-05-19T18:39:15.760Z,101297.56
2023-05-19T18:44:21.996Z,101305.47
2023-05-19T18:49:27.258Z,101300.78
2023-05-19T18:54:33.161Z,101299.97
2023-05-19T18:59:38.750Z,101308.69
2023-05-19T19:04:46.068Z,101309.28
2023-05-19T19:09:52.233Z,101297.28
2023-05-19T19:14:57.900Z,101295.78
2023-05-19T19:20:03.674Z,101299.84
2023-05-19T19:25:10.098Z,101312.19
2023-05-19T19:30:15.485Z,101305.41
2023-05-19T19:35:21.429Z,101292.75
2023-05-19T19:40:27.170Z,101311.78
2023-05-19T19:45:35.224Z,101320.16
2023-05-19T19:50:40.880Z,101308.25
2023-05-19T19:55:50.003Z,101311.41
2023-05-19T20:01:06.338Z,101316.84
2023-05-19T20:06:12.101Z,101323.09
2023-05-19T20:11:18.025Z,101325.00
2023-05-19T20:16:24.716Z,101332.91
2023-05-19T20:21:30.137Z,101335.94
2023-05-19T20:26:35.598Z,101333.16
2023-05-19T20:31:40.743Z,101349.38
2023-05-19T20:36:46.382Z,101342.47
2023-05-19T20:41:51.808Z,101349.41
2023-05-19T20:46:58.374Z,101349.41
2023-05-19T20:52:03.953Z,101356.31
2023-05-19T20:57:10.048Z,101354.22
2023-05-19T21:02:15.570Z,101348.03
2023-05-19T21:07:20.931Z,101352.69
2023-05-19T21:12:32.058Z,101357.91
2023-05-19T21:17:37.577Z,101352.78
2023-05-19T21:22:43.115Z,101362.09
2023-05-19T21:27:48.443Z,101374.34
2023-05-19T21:32:54.081Z,101370.50
2023-05-19T21:38:02.114Z,101363.28
2023-05-19T21:43:16.992Z,101376.44
2023-05-19T21:48:22.393Z,101375.97
2023-05-19T21:53:27.815Z,101379.06
2023-05-19T21:58:33.163Z,101380.22
2023-05-19T22:03:38.775Z,101377.34
2023-05-19T22:08:44.440Z,101374.44
2023-05-19T22:13:50.695Z,101382.94
2023-05-19T22:18:56.156Z,101382.94
2023-05-19T22:24:01.620Z,101390.75
2023-05-19T22:29:06.992Z,101384.19
2023-05-19T22:34:15.990Z,101378.94
2023-05-19T22:39:21.513Z,101394.28
2023-05-19T22:44:27.011Z,101388.13
2023-05-19T22:49:32.591Z,101391.75
2023-05-19T22:54:38.417Z,101389.81
2023-05-19T22:59:44.035Z,101391.75
2023-05-19T23:04:49.444Z,101380.13
2023-05-19T23:09:55.329Z,101379.41
2023-05-19T23:15:00.794Z,101379.31
2023-05-19T23:20:06.773Z,101369.22
2023-05-19T23:25:12.220Z,101373.31
2023-05-19T23:30:17.847Z,101371.97
2023-05-19T23:35:23.270Z,101373.13
2023-05-19T23:40:28.824Z,101368.50
2023-05-19T23:45:34.579Z,101358.78
2023-05-19T23:50:40.161Z,101360.31
2023-05-19T23:55:45.978Z,101358.03
